createdAt,value
2023-01-17T00:00:57.225Z,9.17
2023-01-17T00:05:12.493Z,8.96
2023-01-17T00:09:26.901Z,8.75
2023-01-17T00:13:27.311Z,8.53
2023-01-17T00:17:29.342Z,8.49
2023-01-17T00:21:44.512Z,8.97
2023-01-17T00:26:12.226Z,8.54
2023-01-17T00:30:12.592Z,8.81
2023-01-17T00:34:09.886Z,9.01
2023-01-17T00:38:12.701Z,8.91
2023-01-17T00:42:10.061Z,8.94
2023-01-17T00:46:23.757Z,9.09
2023-01-17T00:50:36.326Z,9.11
2023-01-17T00:54:51.495Z,9.27
2023-01-17T00:59:04.535Z,8.74
2023-01-17T01:03:22.876Z,8.82
2023-01-17T01:07:35.415Z,9.00
2023-01-17T01:11:50.576Z,9.02
2023-01-17T01:16:03.104Z,8.99
2023-01-17T01:20:15.624Z,8.96
2023-01-17T01:24:28.151Z,9.03
2023-01-17T01:28:43.289Z,8.99
2023-01-17T01:32:55.870Z,8.47
2023-01-17T01:36:56.071Z,8.95
2023-01-17T01:40:59.481Z,8.93
2023-01-17T01:45:02.782Z,8.88
2023-01-17T01:49:08.491Z,8.34
2023-01-17T01:53:10.467Z,8.34
2023-01-17T01:57:16.201Z,8.84
2023-01-17T02:01:20.351Z,9.10
2023-01-17T02:05:25.287Z,8.33
2023-01-17T02:09:26.417Z,8.89
2023-01-17T02:13:26.999Z,8.71
2023-01-17T02:17:47.231Z,8.47
2023-01-17T02:22:08.990Z,9.03
2023-01-17T02:26:43.993Z,8.65
2023-01-17T02:30:52.676Z,9.26
2023-01-17T02:35:02.221Z,8.71
2023-01-17T02:39:11.389Z,9.02
2023-01-17T02:43:17.396Z,8.84
2023-01-17T02:47:29.111Z,8.92
2023-01-17T02:51:57.988Z,8.20
2023-01-17T02:56:08.659Z,7.99
2023-01-17T03:00:23.941Z,7.94
2023-01-17T03:04:36.904Z,8.16
2023-01-17T03:08:37.551Z,7.49
2023-01-17T03:12:42.537Z,7.55
2023-01-17T03:16:43.096Z,7.57
2023-01-17T03:20:46.275Z,7.02
2023-01-17T03:24:46.296Z,7.14
2023-01-17T03:28:46.717Z,7.21
2023-01-17T03:32:46.797Z,7.20
2023-01-17T03:36:49.724Z,7.25
2023-01-17T03:40:49.738Z,7.01
2023-01-17T03:44:49.772Z,6.83
2023-01-17T03:48:50.196Z,6.85
2023-01-17T03:52:53.924Z,6.93
2023-01-17T03:56:53.953Z,7.37
2023-01-17T04:00:54.149Z,6.75
2023-01-17T04:04:54.315Z,6.92
2023-01-17T04:08:57.210Z,6.49
2023-01-17T04:12:57.303Z,6.76
2023-01-17T04:16:58.167Z,6.91
2023-01-17T04:20:58.377Z,7.16
2023-01-17T04:25:01.136Z,7.28
2023-01-17T04:29:01.230Z,7.35
2023-01-17T04:33:02.261Z,6.99
2023-01-17T04:37:02.349Z,7.35
2023-01-17T04:41:05.166Z,7.14
2023-01-17T04:45:05.415Z,6.88
2023-01-17T04:49:05.477Z,7.07
2023-01-17T04:53:05.836Z,6.58
2023-01-17T04:57:08.535Z,7.07
2023-01-17T05:01:11.021Z,7.01
2023-01-17T05:05:13.500Z,6.74
2023-01-17T05:09:13.727Z,7.08
2023-01-17T05:13:16.506Z,6.80
2023-01-17T05:17:16.647Z,6.84
2023-01-17T05:21:16.739Z,6.46
2023-01-17T05:25:17.096Z,6.81
2023-01-17T05:29:20.226Z,6.90
2023-01-17T05:33:20.313Z,6.74
2023-01-17T05:37:20.468Z,6.77
2023-01-17T05:41:20.536Z,6.70
2023-01-17T05:45:25.449Z,6.90
2023-01-17T05:49:25.878Z,7.03
2023-01-17T05:53:26.183Z,7.05
2023-01-17T05:57:26.330Z,7.04
2023-01-17T06:01:28.928Z,7.19
2023-01-17T06:05:30.549Z,6.79
2023-01-17T06:09:30.560Z,6.66
2023-01-17T06:13:30.633Z,6.91
2023-01-17T06:17:33.413Z,7.18
2023-01-17T06:21:33.519Z,7.10
2023-01-17T06:25:37.812Z,7.04
2023-01-17T06:29:37.974Z,7.40
2023-01-17T06:33:40.638Z,7.37
2023-01-17T06:37:40.694Z,7.50
2023-01-17T06:41:40.813Z,7.82
2023-01-17T06:45:40.976Z,7.72
2023-01-17T06:49:43.761Z,7.66
2023-01-17T06:53:44.017Z,7.77
2023-01-17T06:57:44.350Z,7.87
2023-01-17T07:01:44.480Z,7.88
2023-01-17T07:05:47.184Z,7.89
2023-01-17T07:09:47.332Z,7.70
2023-01-17T07:13:47.485Z,7.78
2023-01-17T07:17:47.484Z,7.77
2023-01-17T07:21:53.289Z,8.00
2023-01-17T07:25:57.958Z,7.97
2023-01-17T07:29:58.088Z,8.05
2023-01-17T07:33:58.166Z,8.00
2023-01-17T07:38:01.039Z,8.11
2023-01-17T07:42:01.040Z,8.06
2023-01-17T07:46:02.330Z,7.89
2023-01-17T07:50:02.886Z,8.11
2023-01-17T07:54:05.625Z,8.48
2023-01-17T07:58:06.021Z,8.39
2023-01-17T08:02:06.141Z,8.31
2023-01-17T08:06:07.053Z,8.09
2023-01-17T08:10:13.198Z,7.79
2023-01-17T08:14:13.281Z,8.04
2023-01-17T08:18:13.442Z,8.20
2023-01-17T08:22:14.655Z,8.24
2023-01-17T08:26:22.272Z,8.60
2023-01-17T08:30:22.486Z,9.31
2023-01-17T08:34:22.813Z,9.30
2023-01-17T08:38:24.070Z,9.23
2023-01-17T08:42:26.779Z,9.29
2023-01-17T08:46:27.216Z,9.48
2023-01-17T08:50:27.367Z,9.99
2023-01-17T08:54:27.435Z,9.86
2023-01-17T08:58:31.603Z,10.52
2023-01-17T09:02:31.829Z,10.48
2023-01-17T09:06:31.940Z,9.66
2023-01-17T09:10:32.064Z,11.19
2023-01-17T09:14:34.754Z,12.14
2023-01-17T09:18:37.005Z,10.86
2023-01-17T09:22:39.096Z,10.81
2023-01-17T09:26:39.623Z,10.29
2023-01-17T09:30:42.435Z,10.33
2023-01-17T09:34:42.504Z,10.81
2023-01-17T09:38:42.837Z,11.81
2023-01-17T09:42:44.672Z,12.69
2023-01-17T09:46:54.976Z,13.70
2023-01-17T09:51:02.766Z,13.83
2023-01-17T09:55:02.863Z,12.75
2023-01-17T09:59:32.742Z,12.79
2023-01-17T10:04:01.863Z,13.14
2023-01-17T10:08:19.169Z,11.67
2023-01-17T10:12:35.948Z,11.33
2023-01-17T10:16:51.466Z,11.02
2023-01-17T10:21:07.355Z,11.06
2023-01-17T10:25:43.035Z,12.24
2023-01-17T10:29:43.979Z,12.69
2023-01-17T10:33:51.237Z,13.36
2023-01-17T10:37:59.858Z,13.09
2023-01-17T10:42:09.393Z,12.60
2023-01-17T10:46:18.505Z,11.69
2023-01-17T10:50:19.938Z,11.44
2023-01-17T10:54:51.849Z,11.41
2023-01-17T10:59:00.724Z,11.25
2023-01-17T11:03:02.271Z,11.14
2023-01-17T11:07:18.447Z,11.47
2023-01-17T11:11:23.173Z,12.52
2023-01-17T11:15:26.052Z,13.40
2023-01-17T11:19:35.485Z,14.56
2023-01-17T11:23:37.066Z,14.67
2023-01-17T11:27:42.318Z,14.97
2023-01-17T11:31:42.474Z,14.96
2023-01-17T11:35:48.223Z,13.88
2023-01-17T11:39:50.045Z,12.49
2023-01-17T11:43:59.639Z,11.90
2023-01-17T11:48:14.770Z,11.69
2023-01-17T11:52:25.234Z,11.83
2023-01-17T11:56:35.861Z,12.85
2023-01-17T12:00:48.649Z,12.95
2023-01-17T12:05:04.097Z,12.54
2023-01-17T12:09:25.172Z,12.42
2023-01-17T12:13:55.867Z,13.17
2023-01-17T12:18:24.754Z,14.34
2023-01-17T12:22:45.245Z,15.37
2023-01-17T12:26:56.127Z,15.90
2023-01-17T12:31:21.957Z,16.78
2023-01-17T12:35:38.624Z,16.91
2023-01-17T12:39:44.779Z,18.29
2023-01-17T12:43:47.044Z,17.91
2023-01-17T12:47:55.464Z,17.90
2023-01-17T12:52:08.025Z,17.92
2023-01-17T12:56:19.040Z,18.74
2023-01-17T13:00:25.575Z,18.73
2023-01-17T13:04:33.140Z,17.00
2023-01-17T13:08:43.281Z,15.92
2023-01-17T13:12:44.336Z,15.29
2023-01-17T13:16:51.734Z,16.05
2023-01-17T13:21:11.255Z,15.70
2023-01-17T13:25:35.490Z,15.62
2023-01-17T13:29:49.081Z,16.34
2023-01-17T13:34:21.269Z,17.49
2023-01-17T13:39:06.097Z,17.95
2023-01-17T13:43:16.582Z,16.76
2023-01-17T13:47:43.685Z,15.64
2023-01-17T13:52:07.697Z,14.66
2023-01-17T13:56:17.368Z,14.45
2023-01-17T14:00:56.266Z,14.04
2023-01-17T14:05:15.267Z,13.67
2023-01-17T14:09:23.846Z,13.24
2023-01-17T14:13:37.971Z,12.82
2023-01-17T14:17:59.137Z,12.52
2023-01-17T14:22:25.481Z,11.88
2023-01-17T14:26:48.189Z,12.53
2023-01-17T14:30:54.279Z,12.66
2023-01-17T14:34:57.711Z,12.09
2023-01-17T14:38:57.947Z,11.86
2023-01-17T14:43:05.825Z,11.44
2023-01-17T14:47:05.938Z,11.01
2023-01-17T14:51:16.713Z,10.71
2023-01-17T14:55:21.348Z,10.39
2023-01-17T14:59:25.747Z,10.06
2023-01-17T15:03:26.421Z,10.12
2023-01-17T15:07:31.648Z,10.16
2023-01-17T15:11:36.213Z,9.66
2023-01-17T15:15:39.715Z,9.07
2023-01-17T15:19:46.375Z,9.28
2023-01-17T15:23:53.317Z,9.74
2023-01-17T15:27:54.092Z,9.68
2023-01-17T15:31:58.257Z,9.39
2023-01-17T15:36:03.984Z,9.01
2023-01-17T15:40:20.917Z,8.66
2023-01-17T15:44:49.962Z,8.50
2023-01-17T15:48:51.921Z,8.23
2023-01-17T15:52:53.131Z,8.09
2023-01-17T15:57:22.716Z,7.90
2023-01-17T16:01:28.372Z,8.19
2023-01-17T16:05:43.596Z,7.25
2023-01-17T16:09:47.092Z,7.66
2023-01-17T16:13:50.370Z,7.57
2023-01-17T16:17:54.869Z,7.42
2023-01-17T16:21:57.151Z,7.22
2023-01-17T16:25:57.360Z,6.70
2023-01-17T16:29:59.967Z,6.79
2023-01-17T16:33:59.978Z,6.77
2023-01-17T16:38:03.740Z,6.34
2023-01-17T16:42:05.224Z,6.56
2023-01-17T16:46:08.837Z,6.11
2023-01-17T16:50:09.956Z,6.18
2023-01-17T16:54:09.953Z,5.91
2023-01-17T16:58:10.363Z,5.88
2023-01-17T17:02:15.228Z,5.73
2023-01-17T17:06:15.862Z,5.61
2023-01-17T17:10:20.080Z,5.82
2023-01-17T17:14:20.410Z,5.99
2023-01-17T17:18:23.345Z,5.77
2023-01-17T17:22:23.552Z,6.00
2023-01-17T17:26:23.602Z,6.13
2023-01-17T17:30:23.725Z,5.88
2023-01-17T17:34:28.174Z,6.19
2023-01-17T17:38:28.223Z,6.08
2023-01-17T17:42:28.364Z,6.18
2023-01-17T17:46:29.783Z,6.07
2023-01-17T17:50:32.716Z,6.04
2023-01-17T17:54:33.196Z,5.90
2023-01-17T17:58:37.228Z,5.59
2023-01-17T18:02:37.268Z,5.75
2023-01-17T18:06:40.926Z,5.67
2023-01-17T18:10:42.557Z,5.59
2023-01-17T18:14:43.062Z,5.69
2023-01-17T18:18:47.787Z,5.69
2023-01-17T18:22:50.449Z,5.83
2023-01-17T18:26:53.175Z,5.84
2023-01-17T18:30:53.875Z,5.80
2023-01-17T18:34:54.317Z,5.81
2023-01-17T18:38:57.221Z,5.98
2023-01-17T18:42:57.576Z,6.16
2023-01-17T18:46:59.559Z,6.19
2023-01-17T18:51:01.132Z,6.06
2023-01-17T18:55:03.827Z,5.89
2023-01-17T18:59:05.787Z,6.05
2023-01-17T19:03:06.435Z,6.20
2023-01-17T19:07:06.626Z,6.37
2023-01-17T19:11:10.631Z,6.25
2023-01-17T19:15:12.932Z,6.14
2023-01-17T19:19:16.604Z,6.25
2023-01-17T19:23:16.716Z,6.34
2023-01-17T19:27:19.448Z,6.38
2023-01-17T19:31:23.138Z,6.31
2023-01-17T19:35:23.322Z,6.38
2023-01-17T19:39:26.183Z,6.32
2023-01-17T19:43:28.962Z,6.38
2023-01-17T19:47:29.068Z,6.35
2023-01-17T19:51:30.172Z,6.20
2023-01-17T19:55:30.250Z,6.28
2023-01-17T19:59:32.963Z,6.11
2023-01-17T20:03:33.151Z,6.44
2023-01-17T20:07:33.872Z,6.43
2023-01-17T20:11:34.000Z,6.17
2023-01-17T20:15:37.470Z,5.92
2023-01-17T20:19:38.164Z,6.06
2023-01-17T20:23:40.330Z,6.09
2023-01-17T20:27:41.123Z,6.10
2023-01-17T20:31:45.632Z,6.18
2023-01-17T20:35:45.672Z,6.20
2023-01-17T20:39:45.912Z,6.27
2023-01-17T20:43:47.631Z,6.16
2023-01-17T20:47:50.510Z,6.46
2023-01-17T20:51:51.399Z,6.14
2023-01-17T20:55:59.823Z,5.95
2023-01-17T20:59:59.878Z,6.06
2023-01-17T21:04:03.436Z,6.22
2023-01-17T21:08:04.043Z,6.36
2023-01-17T21:12:04.336Z,6.26
2023-01-17T21:16:04.644Z,6.50
2023-01-17T21:20:08.606Z,6.25
2023-01-17T21:24:09.323Z,6.49
2023-01-17T21:28:09.360Z,6.44
2023-01-17T21:32:09.670Z,6.49
2023-01-17T21:36:13.288Z,6.62
2023-01-17T21:40:17.113Z,6.41
2023-01-17T21:44:21.926Z,6.60
2023-01-17T21:48:21.962Z,6.61
2023-01-17T21:52:24.783Z,6.32
2023-01-17T21:56:37.634Z,6.30
2023-01-17T22:00:38.243Z,5.98
2023-01-17T22:04:38.284Z,6.21
2023-01-17T22:08:41.231Z,6.07
2023-01-17T22:12:41.318Z,6.08
2023-01-17T22:16:41.302Z,6.12
2023-01-17T22:20:43.298Z,6.07
2023-01-17T22:24:45.896Z,6.01
2023-01-17T22:28:47.022Z,5.95
2023-01-17T22:32:47.029Z,6.16
2023-01-17T22:36:47.096Z,6.09
2023-01-17T22:40:49.713Z,6.36
2023-01-17T22:44:50.165Z,6.45
2023-01-17T22:48:52.227Z,6.53
2023-01-17T22:52:52.317Z,6.54
2023-01-17T22:56:54.974Z,6.65
2023-01-17T23:00:57.411Z,6.57
2023-01-17T23:04:57.525Z,6.69
2023-01-17T23:09:01.781Z,6.67
2023-01-17T23:13:04.428Z,6.75
2023-01-17T23:17:19.233Z,6.81
2023-01-17T23:21:19.354Z,6.94
2023-01-17T23:25:19.639Z,7.02
2023-01-17T23:29:19.919Z,7.09
2023-01-17T23:33:20.409Z,6.99
2023-01-17T23:37:20.482Z,6.93
2023-01-17T23:41:32.982Z,7.02
2023-01-17T23:45:38.839Z,6.89
2023-01-17T23:49:38.837Z,7.07
2023-01-17T23:53:40.685Z,6.83
2023-01-17T23:57:40.942Z,6.77
